sensor_id;sensor_type;location;lat;lon;timestamp;P1;durP1;ratioP1;P2;durP2;ratioP2
68126;SDS011;54931;52.098;21.006;2023-03-02T00:02:05;110.70;;;39.70;;
68126;SDS011;54931;52.098;21.006;2023-03-02T00:04:41;109.10;;;38.20;;
68126;SDS011;54931;52.098;21.006;2023-03-02T00:07:16;107.90;;;40.40;;
68126;SDS011;54931;52.098;21.006;2023-03-02T00:09:47;74.00;;;27.20;;
68126;SDS011;54931;52.098;21.006;2023-03-02T00:12:15;96.10;;;34.30;;
68126;SDS011;54931;52.098;21.006;2023-03-02T00:14:43;101.30;;;37.20;;
68126;SDS011;54931;52.098;21.006;2023-03-02T00:17:11;122.30;;;42.50;;
68126;SDS011;54931;52.098;21.006;2023-03-02T00:19:39;142.10;;;47.90;;
68126;SDS011;54931;52.098;21.006;2023-03-02T00:22:08;126.80;;;45.20;;
68126;SDS011;54931;52.098;21.006;2023-03-02T00:24:36;113.90;;;40.60;;
68126;SDS011;54931;52.098;21.006;2023-03-02T00:27:04;121.60;;;44.50;;
68126;SDS011;54931;52.098;21.006;2023-03-02T00:29:32;144.00;;;48.10;;
68126;SDS011;54931;52.098;21.006;2023-03-02T00:32:00;151.30;;;52.00;;
68126;SDS011;54931;52.098;21.006;2023-03-02T00:34:30;161.40;;;53.80;;
68126;SDS011;54931;52.098;21.006;2023-03-02T00:37:00;158.60;;;56.40;;
68126;SDS011;54931;52.098;21.006;2023-03-02T00:39:29;162.80;;;52.70;;
68126;SDS011;54931;52.098;21.006;2023-03-02T00:41:58;147.40;;;52.50;;
68126;SDS011;54931;52.098;21.006;2023-03-02T00:44:29;155.30;;;52.00;;
68126;SDS011;54931;52.098;21.006;2023-03-02T00:46:57;149.70;;;50.80;;
68126;SDS011;54931;52.098;21.006;2023-03-02T00:49:25;157.40;;;52.00;;
68126;SDS011;54931;52.098;21.006;2023-03-02T00:51:53;145.80;;;50.00;;
68126;SDS011;54931;52.098;21.006;2023-03-02T00:54:21;151.80;;;50.30;;
68126;SDS011;54931;52.098;21.006;2023-03-02T00:56:49;143.30;;;48.00;;
68126;SDS011;54931;52.098;21.006;2023-03-02T00:59:17;135.70;;;46.40;;
68126;SDS011;54931;52.098;21.006;2023-03-02T01:01:56;141.30;;;49.60;;
68126;SDS011;54931;52.098;21.006;2023-03-02T01:04:29;148.70;;;49.80;;
68126;SDS011;54931;52.098;21.006;2023-03-02T01:07:05;142.30;;;49.10;;
68126;SDS011;54931;52.098;21.006;2023-03-02T01:09:44;127.50;;;45.10;;
68126;SDS011;54931;52.098;21.006;2023-03-02T01:12:13;125.30;;;45.20;;
68126;SDS011;54931;52.098;21.006;2023-03-02T01:14:44;129.20;;;45.80;;
68126;SDS011;54931;52.098;21.006;2023-03-02T01:17:14;109.20;;;41.20;;
68126;SDS011;54931;52.098;21.006;2023-03-02T01:19:43;126.60;;;45.20;;
68126;SDS011;54931;52.098;21.006;2023-03-02T01:22:11;140.60;;;45.90;;
68126;SDS011;54931;52.098;21.006;2023-03-02T01:24:39;142.60;;;49.50;;
68126;SDS011;54931;52.098;21.006;2023-03-02T01:27:08;137.60;;;50.70;;
68126;SDS011;54931;52.098;21.006;2023-03-02T01:29:36;137.40;;;47.20;;
68126;SDS011;54931;52.098;21.006;2023-03-02T01:32:04;123.00;;;43.90;;
68126;SDS011;54931;52.098;21.006;2023-03-02T01:34:32;128.30;;;46.10;;
68126;SDS011;54931;52.098;21.006;2023-03-02T01:37:00;139.40;;;47.60;;
68126;SDS011;54931;52.098;21.006;2023-03-02T01:39:28;135.90;;;48.10;;
68126;SDS011;54931;52.098;21.006;2023-03-02T01:41:56;126.70;;;44.20;;
68126;SDS011;54931;52.098;21.006;2023-03-02T01:44:56;131.70;;;45.50;;
68126;SDS011;54931;52.098;21.006;2023-03-02T01:47:26;132.30;;;45.30;;
68126;SDS011;54931;52.098;21.006;2023-03-02T01:50:24;127.40;;;45.90;;
68126;SDS011;54931;52.098;21.006;2023-03-02T01:52:54;125.30;;;44.40;;
68126;SDS011;54931;52.098;21.006;2023-03-02T01:55:25;137.30;;;45.90;;
68126;SDS011;54931;52.098;21.006;2023-03-02T01:57:57;147.10;;;49.10;;
68126;SDS011;54931;52.098;21.006;2023-03-02T02:00:30;131.80;;;47.50;;
68126;SDS011;54931;52.098;21.006;2023-03-02T02:03:09;131.50;;;46.40;;
68126;SDS011;54931;52.098;21.006;2023-03-02T02:05:43;113.30;;;40.60;;
68126;SDS011;54931;52.098;21.006;2023-03-02T02:08:14;105.00;;;36.00;;
68126;SDS011;54931;52.098;21.006;2023-03-02T02:10:42;134.00;;;44.30;;
68126;SDS011;54931;52.098;21.006;2023-03-02T02:13:10;129.00;;;45.40;;
68126;SDS011;54931;52.098;21.006;2023-03-02T02:15:39;141.90;;;48.50;;
68126;SDS011;54931;52.098;21.006;2023-03-02T02:18:07;133.00;;;46.00;;
68126;SDS011;54931;52.098;21.006;2023-03-02T02:20:38;146.50;;;51.30;;
68126;SDS011;54931;52.098;21.006;2023-03-02T02:26:53;169.20;;;55.50;;
68126;SDS011;54931;52.098;21.006;2023-03-02T02:32:13;164.80;;;53.70;;
68126;SDS011;54931;52.098;21.006;2023-03-02T02:35:31;180.90;;;58.20;;
68126;SDS011;54931;52.098;21.006;2023-03-02T02:38:05;147.70;;;48.60;;
68126;SDS011;54931;52.098;21.006;2023-03-02T02:40:50;140.30;;;47.20;;
68126;SDS011;54931;52.098;21.006;2023-03-02T02:43:22;142.60;;;44.80;;
68126;SDS011;54931;52.098;21.006;2023-03-02T02:45:53;154.90;;;46.80;;
68126;SDS011;54931;52.098;21.006;2023-03-02T02:48:24;134.50;;;41.60;;
68126;SDS011;54931;52.098;21.006;2023-03-02T02:50:58;83.90;;;26.60;;
68126;SDS011;54931;52.098;21.006;2023-03-02T02:54:02;120.00;;;36.40;;
68126;SDS011;54931;52.098;21.006;2023-03-02T02:56:32;117.90;;;32.40;;
68126;SDS011;54931;52.098;21.006;2023-03-02T02:59:05;64.60;;;19.00;;
68126;SDS011;54931;52.098;21.006;2023-03-02T03:01:42;81.20;;;23.80;;
68126;SDS011;54931;52.098;21.006;2023-03-02T03:04:13;71.20;;;20.10;;
68126;SDS011;54931;52.098;21.006;2023-03-02T03:06:58;58.80;;;19.20;;
68126;SDS011;54931;52.098;21.006;2023-03-02T03:09:28;78.80;;;22.80;;
68126;SDS011;54931;52.098;21.006;2023-03-02T03:12:02;83.70;;;23.10;;
68126;SDS011;54931;52.098;21.006;2023-03-02T03:14:39;81.00;;;22.00;;
68126;SDS011;54931;52.098;21.006;2023-03-02T03:17:07;93.10;;;25.10;;
68126;SDS011;54931;52.098;21.006;2023-03-02T03:19:42;83.10;;;24.60;;
68126;SDS011;54931;52.098;21.006;2023-03-02T03:22:14;86.40;;;24.20;;
68126;SDS011;54931;52.098;21.006;2023-03-02T03:24:44;91.70;;;27.10;;
68126;SDS011;54931;52.098;21.006;2023-03-02T03:27:14;86.40;;;23.60;;
68126;SDS011;54931;52.098;21.006;2023-03-02T03:29:44;81.00;;;21.30;;
68126;SDS011;54931;52.098;21.006;2023-03-02T03:32:17;77.80;;;21.60;;
68126;SDS011;54931;52.098;21.006;2023-03-02T03:34:46;69.40;;;19.90;;
68126;SDS011;54931;52.098;21.006;2023-03-02T03:37:17;72.00;;;19.30;;
68126;SDS011;54931;52.098;21.006;2023-03-02T03:39:46;88.40;;;25.20;;
68126;SDS011;54931;52.098;21.006;2023-03-02T03:42:14;91.60;;;23.80;;
68126;SDS011;54931;52.098;21.006;2023-03-02T03:44:42;81.20;;;20.90;;
68126;SDS011;54931;52.098;21.006;2023-03-02T03:47:10;78.40;;;21.50;;
68126;SDS011;54931;52.098;21.006;2023-03-02T03:49:37;77.50;;;20.10;;
68126;SDS011;54931;52.098;21.006;2023-03-02T03:52:05;95.10;;;23.50;;
68126;SDS011;54931;52.098;21.006;2023-03-02T03:54:33;92.20;;;25.80;;
68126;SDS011;54931;52.098;21.006;2023-03-02T03:57:01;73.00;;;19.30;;
68126;SDS011;54931;52.098;21.006;2023-03-02T03:59:29;67.10;;;20.30;;
68126;SDS011;54931;52.098;21.006;2023-03-02T04:01:58;72.40;;;19.70;;
68126;SDS011;54931;52.098;21.006;2023-03-02T04:04:33;67.00;;;19.20;;
68126;SDS011;54931;52.098;21.006;2023-03-02T04:07:01;70.50;;;17.60;;
68126;SDS011;54931;52.098;21.006;2023-03-02T04:09:29;75.10;;;19.30;;
68126;SDS011;54931;52.098;21.006;2023-03-02T04:12:06;86.00;;;22.20;;
68126;SDS011;54931;52.098;21.006;2023-03-02T04:14:34;76.90;;;21.30;;
68126;SDS011;54931;52.098;21.006;2023-03-02T04:17:03;75.80;;;19.80;;
68126;SDS011;54931;52.098;21.006;2023-03-02T04:19:31;77.80;;;20.60;;
68126;SDS011;54931;52.098;21.006;2023-03-02T04:21:59;62.10;;;20.20;;
68126;SDS011;54931;52.098;21.006;2023-03-02T04:24:30;85.30;;;19.50;;
68126;SDS011;54931;52.098;21.006;2023-03-02T04:26:58;82.80;;;23.20;;
68126;SDS011;54931;52.098;21.006;2023-03-02T04:29:26;83.00;;;22.90;;
68126;SDS011;54931;52.098;21.006;2023-03-02T04:31:54;75.20;;;21.30;;
68126;SDS011;54931;52.098;21.006;2023-03-02T04:34:22;75.70;;;21.60;;
68126;SDS011;54931;52.098;21.006;2023-03-02T04:36:52;88.60;;;21.40;;
68126;SDS011;54931;52.098;21.006;2023-03-02T04:39:20;82.20;;;21.30;;
68126;SDS011;54931;52.098;21.006;2023-03-02T04:41:48;81.80;;;19.80;;
68126;SDS011;54931;52.098;21.006;2023-03-02T04:44:17;91.60;;;22.70;;
68126;SDS011;54931;52.098;21.006;2023-03-02T04:46:47;84.70;;;22.00;;
68126;SDS011;54931;52.098;21.006;2023-03-02T04:49:16;84.20;;;21.90;;
68126;SDS011;54931;52.098;21.006;2023-03-02T04:51:46;53.90;;;14.40;;
68126;SDS011;54931;52.098;21.006;2023-03-02T04:54:22;67.40;;;17.80;;
68126;SDS011;54931;52.098;21.006;2023-03-02T04:56:52;63.80;;;18.70;;
68126;SDS011;54931;52.098;21.006;2023-03-02T04:59:25;75.40;;;19.70;;
68126;SDS011;54931;52.098;21.006;2023-03-02T05:01:58;81.30;;;21.60;;
68126;SDS011;54931;52.098;21.006;2023-03-02T05:04:28;70.10;;;18.40;;
68126;SDS011;54931;52.098;21.006;2023-03-02T05:06:57;55.60;;;15.40;;
68126;SDS011;54931;52.098;21.006;2023-03-02T05:09:26;53.10;;;15.90;;
68126;SDS011;54931;52.098;21.006;2023-03-02T05:11:59;60.60;;;17.50;;
68126;SDS011;54931;52.098;21.006;2023-03-02T05:14:28;74.90;;;20.40;;
68126;SDS011;54931;52.098;21.006;2023-03-02T05:16:57;83.70;;;22.60;;
68126;SDS011;54931;52.098;21.006;2023-03-02T05:19:25;54.00;;;15.30;;
68126;SDS011;54931;52.098;21.006;2023-03-02T05:21:53;66.30;;;18.50;;
68126;SDS011;54931;52.098;21.006;2023-03-02T05:24:22;58.40;;;18.80;;
68126;SDS011;54931;52.098;21.006;2023-03-02T05:26:50;60.50;;;17.30;;
68126;SDS011;54931;52.098;21.006;2023-03-02T05:29:19;57.00;;;17.20;;
68126;SDS011;54931;52.098;21.006;2023-03-02T05:31:46;71.60;;;19.00;;
68126;SDS011;54931;52.098;21.006;2023-03-02T05:34:16;78.40;;;21.50;;
68126;SDS011;54931;52.098;21.006;2023-03-02T05:36:44;84.60;;;22.20;;
68126;SDS011;54931;52.098;21.006;2023-03-02T05:39:12;63.60;;;18.60;;
68126;SDS011;54931;52.098;21.006;2023-03-02T05:41:41;72.20;;;18.50;;
68126;SDS011;54931;52.098;21.006;2023-03-02T05:44:08;58.50;;;16.70;;
68126;SDS011;54931;52.098;21.006;2023-03-02T05:46:38;54.70;;;16.30;;
68126;SDS011;54931;52.098;21.006;2023-03-02T05:49:06;57.40;;;17.20;;
68126;SDS011;54931;52.098;21.006;2023-03-02T05:51:34;59.70;;;17.90;;
68126;SDS011;54931;52.098;21.006;2023-03-02T05:54:01;65.00;;;17.90;;
68126;SDS011;54931;52.098;21.006;2023-03-02T05:56:29;83.30;;;23.50;;
68126;SDS011;54931;52.098;21.006;2023-03-02T05:58:57;87.50;;;22.80;;
68126;SDS011;54931;52.098;21.006;2023-03-02T06:01:25;80.10;;;22.20;;
68126;SDS011;54931;52.098;21.006;2023-03-02T06:03:53;72.20;;;21.00;;
68126;SDS011;54931;52.098;21.006;2023-03-02T06:06:20;84.90;;;22.40;;
68126;SDS011;54931;52.098;21.006;2023-03-02T06:08:49;79.10;;;21.80;;
68126;SDS011;54931;52.098;21.006;2023-03-02T06:11:16;88.30;;;24.10;;
68126;SDS011;54931;52.098;21.006;2023-03-02T06:13:44;66.20;;;18.00;;
68126;SDS011;54931;52.098;21.006;2023-03-02T06:16:12;67.00;;;18.60;;
68126;SDS011;54931;52.098;21.006;2023-03-02T06:18:40;61.60;;;17.70;;
68126;SDS011;54931;52.098;21.006;2023-03-02T06:21:08;78.50;;;22.70;;
68126;SDS011;54931;52.098;21.006;2023-03-02T06:23:36;98.20;;;27.10;;
68126;SDS011;54931;52.098;21.006;2023-03-02T06:26:09;87.30;;;24.80;;
68126;SDS011;54931;52.098;21.006;2023-03-02T06:28:38;62.80;;;19.10;;
68126;SDS011;54931;52.098;21.006;2023-03-02T06:31:06;63.50;;;20.00;;
68126;SDS011;54931;52.098;21.006;2023-03-02T06:33:35;58.20;;;19.60;;
68126;SDS011;54931;52.098;21.006;2023-03-02T06:36:03;80.60;;;21.50;;
68126;SDS011;54931;52.098;21.006;2023-03-02T06:38:31;75.40;;;21.90;;
68126;SDS011;54931;52.098;21.006;2023-03-02T06:40:59;80.60;;;23.90;;
68126;SDS011;54931;52.098;21.006;2023-03-02T06:43:26;83.60;;;24.70;;
68126;SDS011;54931;52.098;21.006;2023-03-02T06:45:54;76.80;;;22.30;;
68126;SDS011;54931;52.098;21.006;2023-03-02T06:48:22;76.30;;;21.40;;
68126;SDS011;54931;52.098;21.006;2023-03-02T06:50:50;79.00;;;24.20;;
68126;SDS011;54931;52.098;21.006;2023-03-02T06:53:17;70.70;;;21.60;;
68126;SDS011;54931;52.098;21.006;2023-03-02T06:55:46;73.70;;;21.80;;
68126;SDS011;54931;52.098;21.006;2023-03-02T06:58:14;66.30;;;20.40;;
68126;SDS011;54931;52.098;21.006;2023-03-02T07:00:42;63.00;;;19.30;;
68126;SDS011;54931;52.098;21.006;2023-03-02T07:03:10;63.30;;;19.10;;
68126;SDS011;54931;52.098;21.006;2023-03-02T07:05:38;73.40;;;23.40;;
68126;SDS011;54931;52.098;21.006;2023-03-02T07:08:06;73.30;;;22.20;;
68126;SDS011;54931;52.098;21.006;2023-03-02T07:10:36;61.30;;;21.70;;
68126;SDS011;54931;52.098;21.006;2023-03-02T07:13:04;69.30;;;22.10;;
68126;SDS011;54931;52.098;21.006;2023-03-02T07:15:32;57.70;;;18.20;;
68126;SDS011;54931;52.098;21.006;2023-03-02T07:17:59;55.60;;;18.50;;
68126;SDS011;54931;52.098;21.006;2023-03-02T07:20:28;54.60;;;18.60;;
68126;SDS011;54931;52.098;21.006;2023-03-02T07:22:56;59.20;;;21.00;;
68126;SDS011;54931;52.098;21.006;2023-03-02T07:25:24;69.70;;;22.70;;
68126;SDS011;54931;52.098;21.006;2023-03-02T07:27:52;61.20;;;19.30;;
68126;SDS011;54931;52.098;21.006;2023-03-02T07:30:20;69.50;;;21.90;;
68126;SDS011;54931;52.098;21.006;2023-03-02T07:32:49;71.00;;;22.20;;
68126;SDS011;54931;52.098;21.006;2023-03-02T07:35:17;73.70;;;23.30;;
68126;SDS011;54931;52.098;21.006;2023-03-02T07:37:45;77.70;;;25.00;;
68126;SDS011;54931;52.098;21.006;2023-03-02T07:40:14;72.20;;;23.40;;
68126;SDS011;54931;52.098;21.006;2023-03-02T07:42:42;82.00;;;24.50;;
68126;SDS011;54931;52.098;21.006;2023-03-02T07:45:10;66.70;;;21.70;;
68126;SDS011;54931;52.098;21.006;2023-03-02T07:47:38;77.00;;;22.40;;
68126;SDS011;54931;52.098;21.006;2023-03-02T07:50:07;69.50;;;22.20;;
68126;SDS011;54931;52.098;21.006;2023-03-02T07:52:36;75.70;;;24.10;;
68126;SDS011;54931;52.098;21.006;2023-03-02T07:55:04;70.60;;;22.00;;
68126;SDS011;54931;52.098;21.006;2023-03-02T07:57:32;73.40;;;22.70;;
68126;SDS011;54931;52.098;21.006;2023-03-02T08:00:01;67.80;;;21.80;;
68126;SDS011;54931;52.098;21.006;2023-03-02T08:02:30;75.20;;;22.70;;
68126;SDS011;54931;52.098;21.006;2023-03-02T08:04:59;67.50;;;21.40;;
68126;SDS011;54931;52.098;21.006;2023-03-02T08:07:27;72.10;;;24.50;;
68126;SDS011;54931;52.098;21.006;2023-03-02T08:09:55;66.30;;;22.50;;
68126;SDS011;54931;52.098;21.006;2023-03-02T08:12:24;80.50;;;24.50;;
68126;SDS011;54931;52.098;21.006;2023-03-02T08:14:52;72.30;;;23.90;;
68126;SDS011;54931;52.098;21.006;2023-03-02T08:17:20;63.80;;;20.70;;
68126;SDS011;54931;52.098;21.006;2023-03-02T08:19:48;50.30;;;16.70;;
68126;SDS011;54931;52.098;21.006;2023-03-02T08:22:16;52.90;;;16.80;;
68126;SDS011;54931;52.098;21.006;2023-03-02T08:24:44;59.90;;;19.00;;
68126;SDS011;54931;52.098;21.006;2023-03-02T08:27:14;43.80;;;16.00;;
68126;SDS011;54931;52.098;21.006;2023-03-02T08:29:42;59.10;;;19.80;;
68126;SDS011;54931;52.098;21.006;2023-03-02T08:32:10;52.30;;;17.70;;
68126;SDS011;54931;52.098;21.006;2023-03-02T08:34:38;56.60;;;17.60;;
68126;SDS011;54931;52.098;21.006;2023-03-02T08:37:06;59.60;;;19.50;;
68126;SDS011;54931;52.098;21.006;2023-03-02T08:39:34;55.80;;;18.70;;
68126;SDS011;54931;52.098;21.006;2023-03-02T08:42:02;44.30;;;16.40;;
68126;SDS011;54931;52.098;21.006;2023-03-02T08:44:30;53.40;;;17.90;;
68126;SDS011;54931;52.098;21.006;2023-03-02T08:46:58;57.10;;;18.40;;
68126;SDS011;54931;52.098;21.006;2023-03-02T08:49:26;51.60;;;17.20;;
68126;SDS011;54931;52.098;21.006;2023-03-02T08:51:54;50.10;;;16.40;;
68126;SDS011;54931;52.098;21.006;2023-03-02T08:54:23;50.50;;;16.50;;
68126;SDS011;54931;52.098;21.006;2023-03-02T08:56:51;49.60;;;15.90;;
68126;SDS011;54931;52.098;21.006;2023-03-02T08:59:19;49.20;;;16.90;;
68126;SDS011;54931;52.098;21.006;2023-03-02T09:01:48;48.80;;;17.90;;
68126;SDS011;54931;52.098;21.006;2023-03-02T09:04:16;46.80;;;16.60;;
68126;SDS011;54931;52.098;21.006;2023-03-02T09:06:44;49.10;;;16.50;;
68126;SDS011;54931;52.098;21.006;2023-03-02T09:09:14;54.40;;;18.90;;
68126;SDS011;54931;52.098;21.006;2023-03-02T09:11:42;52.40;;;17.90;;
68126;SDS011;54931;52.098;21.006;2023-03-02T09:14:11;46.00;;;15.40;;
68126;SDS011;54931;52.098;21.006;2023-03-02T09:16:39;43.50;;;14.60;;
68126;SDS011;54931;52.098;21.006;2023-03-02T09:19:09;57.20;;;19.40;;
68126;SDS011;54931;52.098;21.006;2023-03-02T09:21:38;62.20;;;21.10;;
68126;SDS011;54931;52.098;21.006;2023-03-02T09:24:06;63.10;;;22.40;;
68126;SDS011;54931;52.098;21.006;2023-03-02T09:26:34;71.80;;;23.40;;
68126;SDS011;54931;52.098;21.006;2023-03-02T09:29:04;80.30;;;24.90;;
68126;SDS011;54931;52.098;21.006;2023-03-02T09:31:34;80.60;;;25.50;;
68126;SDS011;54931;52.098;21.006;2023-03-02T09:34:03;83.80;;;27.20;;
68126;SDS011;54931;52.098;21.006;2023-03-02T09:36:30;95.40;;;27.80;;
68126;SDS011;54931;52.098;21.006;2023-03-02T09:38:58;91.10;;;27.10;;
68126;SDS011;54931;52.098;21.006;2023-03-02T09:44:37;81.40;;;27.20;;
68126;SDS011;54931;52.098;21.006;2023-03-02T09:47:17;83.80;;;26.00;;
68126;SDS011;54931;52.098;21.006;2023-03-02T09:50:20;89.50;;;26.30;;
68126;SDS011;54931;52.098;21.006;2023-03-02T09:53:23;85.50;;;25.80;;
68126;SDS011;54931;52.098;21.006;2023-03-02T09:55:56;88.00;;;26.70;;
68126;SDS011;54931;52.098;21.006;2023-03-02T09:58:37;78.10;;;26.50;;
68126;SDS011;54931;52.098;21.006;2023-03-02T10:01:14;89.00;;;28.10;;
68126;SDS011;54931;52.098;21.006;2023-03-02T10:04:05;81.50;;;25.80;;
68126;SDS011;54931;52.098;21.006;2023-03-02T10:06:40;84.40;;;26.70;;
68126;SDS011;54931;52.098;21.006;2023-03-02T10:09:08;89.70;;;26.30;;
68126;SDS011;54931;52.098;21.006;2023-03-02T10:11:53;76.60;;;25.80;;
68126;SDS011;54931;52.098;21.006;2023-03-02T10:14:34;89.10;;;28.30;;
68126;SDS011;54931;52.098;21.006;2023-03-02T10:20:52;92.90;;;29.30;;
68126;SDS011;54931;52.098;21.006;2023-03-02T10:23:30;78.80;;;25.30;;
68126;SDS011;54931;52.098;21.006;2023-03-02T10:26:48;82.10;;;26.10;;
68126;SDS011;54931;52.098;21.006;2023-03-02T10:34:37;63.90;;;22.40;;
68126;SDS011;54931;52.098;21.006;2023-03-02T10:37:17;60.90;;;22.30;;
68126;SDS011;54931;52.098;21.006;2023-03-02T10:39:56;63.60;;;23.50;;
68126;SDS011;54931;52.098;21.006;2023-03-02T10:42:33;60.00;;;23.70;;
68126;SDS011;54931;52.098;21.006;2023-03-02T10:45:23;30.60;;;11.80;;
68126;SDS011;54931;52.098;21.006;2023-03-02T10:48:04;23.90;;;9.80;;
68126;SDS011;54931;52.098;21.006;2023-03-02T10:50:34;20.40;;;8.40;;
68126;SDS011;54931;52.098;21.006;2023-03-02T10:53:07;16.10;;;7.30;;
68126;SDS011;54931;52.098;21.006;2023-03-02T10:55:50;16.80;;;7.40;;
68126;SDS011;54931;52.098;21.006;2023-03-02T10:58:31;17.80;;;7.80;;
68126;SDS011;54931;52.098;21.006;2023-03-02T11:01:03;15.50;;;6.80;;
68126;SDS011;54931;52.098;21.006;2023-03-02T11:03:33;13.30;;;5.80;;
68126;SDS011;54931;52.098;21.006;2023-03-02T11:06:30;15.30;;;6.30;;
68126;SDS011;54931;52.098;21.006;2023-03-02T11:09:03;15.30;;;6.40;;
68126;SDS011;54931;52.098;21.006;2023-03-02T11:11:33;11.50;;;5.50;;
68126;SDS011;54931;52.098;21.006;2023-03-02T11:14:13;11.50;;;5.70;;
68126;SDS011;54931;52.098;21.006;2023-03-02T11:16:43;17.70;;;7.40;;
68126;SDS011;54931;52.098;21.006;2023-03-02T11:19:15;9.50;;;4.50;;
68126;SDS011;54931;52.098;21.006;2023-03-02T11:22:33;11.60;;;4.80;;
68126;SDS011;54931;52.098;21.006;2023-03-02T11:25:12;12.40;;;4.80;;
68126;SDS011;54931;52.098;21.006;2023-03-02T11:27:59;8.00;;;4.00;;
68126;SDS011;54931;52.098;21.006;2023-03-02T11:30:40;9.70;;;4.80;;
68126;SDS011;54931;52.098;21.006;2023-03-02T11:33:23;11.70;;;5.70;;
68126;SDS011;54931;52.098;21.006;2023-03-02T11:36:03;9.70;;;4.90;;
68126;SDS011;54931;52.098;21.006;2023-03-02T11:38:47;10.60;;;4.70;;
68126;SDS011;54931;52.098;21.006;2023-03-02T11:41:31;11.30;;;4.90;;
68126;SDS011;54931;52.098;21.006;2023-03-02T11:44:21;10.80;;;4.60;;
68126;SDS011;54931;52.098;21.006;2023-03-02T11:46:58;9.90;;;4.80;;
68126;SDS011;54931;52.098;21.006;2023-03-02T11:49:58;9.70;;;4.90;;
68126;SDS011;54931;52.098;21.006;2023-03-02T11:52:32;16.50;;;5.70;;
68126;SDS011;54931;52.098;21.006;2023-03-02T11:55:23;12.40;;;5.10;;
68126;SDS011;54931;52.098;21.006;2023-03-02T11:57:57;13.80;;;5.30;;
68126;SDS011;54931;52.098;21.006;2023-03-02T12:00:32;13.10;;;6.70;;
68126;SDS011;54931;52.098;21.006;2023-03-02T12:06:02;13.80;;;6.70;;
68126;SDS011;54931;52.098;21.006;2023-03-02T12:08:41;12.50;;;5.60;;
68126;SDS011;54931;52.098;21.006;2023-03-02T12:13:45;15.10;;;6.30;;
68126;SDS011;54931;52.098;21.006;2023-03-02T12:16:37;13.60;;;5.90;;
68126;SDS011;54931;52.098;21.006;2023-03-02T12:21:56;18.30;;;7.10;;
68126;SDS011;54931;52.098;21.006;2023-03-02T12:24:33;12.70;;;6.60;;
68126;SDS011;54931;52.098;21.006;2023-03-02T12:27:06;15.30;;;6.60;;
68126;SDS011;54931;52.098;21.006;2023-03-02T12:30:06;15.00;;;7.40;;
68126;SDS011;54931;52.098;21.006;2023-03-02T12:32:37;18.70;;;9.00;;
68126;SDS011;54931;52.098;21.006;2023-03-02T12:37:50;21.70;;;9.40;;
68126;SDS011;54931;52.098;21.006;2023-03-02T12:40:45;15.20;;;7.70;;
68126;SDS011;54931;52.098;21.006;2023-03-02T12:43:31;14.60;;;6.10;;
68126;SDS011;54931;52.098;21.006;2023-03-02T12:51:59;14.70;;;7.40;;
68126;SDS011;54931;52.098;21.006;2023-03-02T12:54:31;14.80;;;6.70;;
68126;SDS011;54931;52.098;21.006;2023-03-02T12:59:41;13.80;;;6.50;;
68126;SDS011;54931;52.098;21.006;2023-03-02T13:02:23;19.20;;;7.40;;
68126;SDS011;54931;52.098;21.006;2023-03-02T13:05:01;14.50;;;6.80;;
68126;SDS011;54931;52.098;21.006;2023-03-02T13:07:35;15.40;;;7.00;;
68126;SDS011;54931;52.098;21.006;2023-03-02T13:16:05;16.10;;;7.50;;
68126;SDS011;54931;52.098;21.006;2023-03-02T13:18:57;17.80;;;8.50;;
68126;SDS011;54931;52.098;21.006;2023-03-02T13:21:33;19.30;;;7.40;;
68126;SDS011;54931;52.098;21.006;2023-03-02T13:27:06;18.30;;;7.90;;
68126;SDS011;54931;52.098;21.006;2023-03-02T13:29:41;26.10;;;11.40;;
68126;SDS011;54931;52.098;21.006;2023-03-02T13:35:24;22.40;;;9.60;;
68126;SDS011;54931;52.098;21.006;2023-03-02T13:38:03;16.60;;;7.40;;
68126;SDS011;54931;52.098;21.006;2023-03-02T13:40:43;20.00;;;9.10;;
68126;SDS011;54931;52.098;21.006;2023-03-02T13:43:33;19.60;;;9.00;;
68126;SDS011;54931;52.098;21.006;2023-03-02T13:46:28;23.20;;;8.40;;
68126;SDS011;54931;52.098;21.006;2023-03-02T13:49:02;22.50;;;9.30;;
68126;SDS011;54931;52.098;21.006;2023-03-02T13:51:42;20.90;;;9.10;;
68126;SDS011;54931;52.098;21.006;2023-03-02T13:54:20;22.30;;;10.20;;
68126;SDS011;54931;52.098;21.006;2023-03-02T13:56:51;20.60;;;8.70;;
68126;SDS011;54931;52.098;21.006;2023-03-02T13:59:20;23.50;;;9.50;;
68126;SDS011;54931;52.098;21.006;2023-03-02T14:01:49;20.70;;;9.40;;
68126;SDS011;54931;52.098;21.006;2023-03-02T14:04:19;18.80;;;8.60;;
68126;SDS011;54931;52.098;21.006;2023-03-02T14:06:51;23.60;;;10.40;;
68126;SDS011;54931;52.098;21.006;2023-03-02T14:09:20;35.90;;;15.90;;
68126;SDS011;54931;52.098;21.006;2023-03-02T14:11:54;28.00;;;12.50;;
68126;SDS011;54931;52.098;21.006;2023-03-02T14:14:25;24.00;;;11.00;;
68126;SDS011;54931;52.098;21.006;2023-03-02T14:16:54;24.10;;;11.20;;
68126;SDS011;54931;52.098;21.006;2023-03-02T14:19:23;24.90;;;10.10;;
68126;SDS011;54931;52.098;21.006;2023-03-02T14:21:51;19.40;;;8.50;;
68126;SDS011;54931;52.098;21.006;2023-03-02T14:24:19;18.90;;;8.50;;
68126;SDS011;54931;52.098;21.006;2023-03-02T14:26:48;22.30;;;10.10;;
68126;SDS011;54931;52.098;21.006;2023-03-02T14:29:30;20.60;;;10.00;;
68126;SDS011;54931;52.098;21.006;2023-03-02T14:32:01;20.50;;;9.10;;
68126;SDS011;54931;52.098;21.006;2023-03-02T14:34:31;20.30;;;9.40;;
68126;SDS011;54931;52.098;21.006;2023-03-02T14:37:20;23.00;;;9.90;;
68126;SDS011;54931;52.098;21.006;2023-03-02T14:39:53;22.60;;;10.10;;
68126;SDS011;54931;52.098;21.006;2023-03-02T14:42:22;24.80;;;9.80;;
68126;SDS011;54931;52.098;21.006;2023-03-02T14:44:51;20.10;;;9.70;;
68126;SDS011;54931;52.098;21.006;2023-03-02T14:47:19;21.20;;;10.60;;
68126;SDS011;54931;52.098;21.006;2023-03-02T14:49:48;21.70;;;10.40;;
68126;SDS011;54931;52.098;21.006;2023-03-02T14:52:27;20.20;;;9.80;;
68126;SDS011;54931;52.098;21.006;2023-03-02T14:55:06;21.70;;;10.20;;
68126;SDS011;54931;52.098;21.006;2023-03-02T14:57:41;22.80;;;10.70;;
68126;SDS011;54931;52.098;21.006;2023-03-02T15:00:13;22.60;;;10.80;;
68126;SDS011;54931;52.098;21.006;2023-03-02T15:02:41;23.60;;;11.20;;
68126;SDS011;54931;52.098;21.006;2023-03-02T15:05:10;24.50;;;12.20;;
68126;SDS011;54931;52.098;21.006;2023-03-02T15:07:38;28.00;;;11.70;;
68126;SDS011;54931;52.098;21.006;2023-03-02T15:10:13;25.10;;;11.40;;
68126;SDS011;54931;52.098;21.006;2023-03-02T15:12:44;26.10;;;11.90;;
68126;SDS011;54931;52.098;21.006;2023-03-02T15:15:12;24.40;;;10.20;;
68126;SDS011;54931;52.098;21.006;2023-03-02T15:17:41;24.90;;;10.70;;
68126;SDS011;54931;52.098;21.006;2023-03-02T15:20:12;25.00;;;10.30;;
68126;SDS011;54931;52.098;21.006;2023-03-02T15:22:42;26.70;;;11.10;;
68126;SDS011;54931;52.098;21.006;2023-03-02T15:25:10;24.00;;;11.60;;
68126;SDS011;54931;52.098;21.006;2023-03-02T15:27:39;22.70;;;10.60;;
68126;SDS011;54931;52.098;21.006;2023-03-02T15:30:09;23.90;;;11.30;;